Time;durP1;ratioP1;P1;durP2;ratioP2;P2;SDS_P1;SDS_P2;PMS_P1;PMS_P2;Temp;Humidity;BMP_temperature;BMP_pressure;BME280_temperature;BME280_humidity;BME280_pressure;Samples;Min_cycle;Max_cycle;Signal;HPM_P1;HPM_P2
2022/12/26 00:01:41;;;;;;;5.97;4.35;;;;;;;13.28;79.21;99696.38;5012009;28;20438;-61
2022/12/26 00:04:09;;;;;;;4.93;3.95;;;;;;;13.20;78.73;99686.94;5012120;28;20049;-61
2022/12/26 00:06:39;;;;;;;6.40;4.18;;;;;;;13.22;79.21;99683.78;5010477;28;20064;-61
2022/12/26 00:09:07;;;;;;;4.78;3.65;;;;;;;13.10;78.56;99691.03;5010333;28;20050;-62
2022/12/26 00:11:35;;;;;;;3.63;3.03;;;;;;;13.13;78.61;99683.94;5001181;28;20057;-61
2022/12/26 00:14:06;;;;;;;5.38;3.85;;;;;;;13.14;78.52;99691.13;5007337;28;20057;-61
2022/12/26 00:16:34;;;;;;;7.95;4.90;;;;;;;13.12;79.20;99685.91;5011802;28;20505;-61
2022/12/26 00:19:05;;;;;;;6.80;4.67;;;;;;;13.11;80.05;99678.69;5011979;28;20057;-61
2022/12/26 00:21:33;;;;;;;4.55;3.03;;;;;;;13.18;79.02;99686.47;5009519;28;20480;-61
2022/12/26 00:24:01;;;;;;;6.07;3.53;;;;;;;12.98;79.15;99689.06;5012449;28;20053;-61
2022/12/26 00:26:31;;;;;;;4.43;2.88;;;;;;;13.03;78.95;99685.22;5009965;28;20069;-62
2022/12/26 00:28:59;;;;;;;3.67;2.85;;;;;;;13.07;79.12;99679.75;5009329;28;20111;-61
2022/12/26 00:31:30;;;;;;;4.97;3.30;;;;;;;12.94;79.54;99682.53;5009354;28;20438;-61
2022/12/26 00:33:58;;;;;;;3.22;2.47;;;;;;;12.99;79.41;99676.69;5011682;28;20518;-61
2022/12/26 00:36:31;;;;;;;5.28;3.30;;;;;;;12.97;79.87;99679.03;5010238;28;20411;-61
2022/12/26 00:39:02;;;;;;;3.72;2.80;;;;;;;13.11;78.57;99675.06;5008238;28;20502;-62
2022/12/26 00:41:30;;;;;;;3.83;3.20;;;;;;;13.10;78.09;99681.81;5015151;28;20073;-65
2022/12/26 00:43:58;;;;;;;5.60;3.60;;;;;;;13.02;78.90;99685.53;5015260;28;20055;-65
2022/12/26 00:46:27;;;;;;;4.78;4.00;;;;;;;12.99;79.09;99673.91;5015058;28;20046;-64
2022/12/26 00:48:54;;;;;;;4.65;3.63;;;;;;;13.07;78.41;99679.75;5015091;28;20050;-64
2022/12/26 00:51:22;;;;;;;5.35;4.22;;;;;;;13.10;79.55;99677.06;5015519;28;20080;-65
2022/12/26 00:53:52;;;;;;;5.07;4.00;;;;;;;13.12;78.89;99680.31;5014585;28;20061;-65
2022/12/26 00:56:20;;;;;;;5.50;3.95;;;;;;;13.09;78.06;99671.81;5014645;28;20060;-65
2022/12/26 00:58:47;;;;;;;5.63;3.88;;;;;;;13.19;77.41;99660.16;5015188;28;20058;-64
2022/12/26 01:01:16;;;;;;;5.40;4.03;;;;;;;13.20;77.90;99667.38;5015286;28;20466;-65
2022/12/26 01:03:47;;;;;;;6.53;4.10;;;;;;;13.00;77.78;99661.56;5015323;28;20057;-65
2022/12/26 01:06:15;;;;;;;5.50;3.67;;;;;;;13.24;77.53;99662.69;5015183;28;20065;-65
2022/12/26 01:08:43;;;;;;;5.50;3.58;;;;;;;13.20;76.27;99670.97;5014609;28;20058;-65
2022/12/26 01:11:15;;;;;;;3.67;3.00;;;;;;;13.31;76.60;99679.75;5014815;28;20065;-65
2022/12/26 01:14:03;;;;;;;4.55;3.17;;;;;;;13.39;75.46;99680.75;5013833;28;20057;-64
2022/12/26 01:16:30;;;;;;;4.35;3.40;;;;;;;13.32;75.20;99678.56;5014330;28;20062;-65
2022/12/26 01:19:02;;;;;;;5.07;3.35;;;;;;;13.32;75.05;99677.75;5015154;28;20081;-65
2022/12/26 01:21:33;;;;;;;3.25;2.67;;;;;;;13.24;75.18;99689.84;5014746;28;20546;-65
2022/12/26 01:24:01;;;;;;;5.72;3.17;;;;;;;13.31;75.19;99685.34;5014952;28;20053;-65
2022/12/26 01:26:30;;;;;;;5.15;2.97;;;;;;;13.32;75.56;99686.94;5014635;28;20046;-65
2022/12/26 01:28:57;;;;;;;4.30;2.92;;;;;;;13.24;74.72;99701.84;5014482;28;20058;-64
2022/12/26 01:31:25;;;;;;;7.57;3.70;;;;;;;13.29;74.54;99706.41;5003576;28;20062;-65
2022/12/26 01:33:53;;;;;;;5.07;3.15;;;;;;;13.32;75.03;99697.34;4994528;28;20526;-65
2022/12/26 01:36:20;;;;;;;5.55;3.00;;;;;;;13.25;74.09;99709.09;4994903;28;20058;-65
2022/12/26 01:38:48;;;;;;;5.03;2.90;;;;;;;13.30;75.27;99706.06;5000829;28;20053;-65
2022/12/26 01:41:19;;;;;;;3.67;3.03;;;;;;;13.36;75.08;99707.47;5011841;28;20053;-64
2022/12/26 01:43:56;;;;;;;6.65;2.90;;;;;;;13.33;75.80;99698.94;5008825;28;20057;-65
2022/12/26 01:46:29;;;;;;;4.20;2.75;;;;;;;13.40;76.56;99694.41;5012700;28;20056;-64
2022/12/26 01:49:01;;;;;;;4.05;2.88;;;;;;;13.34;77.43;99698.59;5012229;28;20058;-65
2022/12/26 01:51:33;;;;;;;3.85;2.58;;;;;;;13.45;77.14;99712.91;5011314;28;20072;-65
2022/12/26 01:54:04;;;;;;;5.43;3.15;;;;;;;13.47;77.64;99698.59;5012418;28;20057;-65
2022/12/26 01:56:38;;;;;;;4.38;3.03;;;;;;;13.55;76.69;99717.22;5006548;28;20050;-65
2022/12/26 01:59:11;;;;;;;8.77;3.13;;;;;;;13.42;76.24;99708.03;5007887;28;20050;-65
2022/12/26 02:01:48;;;;;;;5.88;3.72;;;;;;;13.39;76.29;99715.13;5013405;28;20414;-65
2022/12/26 02:07:06;;;;;;;15.00;12.55;;;;;;;13.45;75.72;99729.69;5014793;28;20053;-66
2022/12/26 02:09:34;;;;;;;19.10;16.52;;;;;;;13.33;75.84;99738.94;5005534;28;20050;-65
2022/12/26 02:12:08;;;;;;;17.65;15.95;;;;;;;13.28;76.54;99747.53;5013930;28;20054;-65
2022/12/26 02:14:39;;;;;;;20.40;18.23;;;;;;;13.28;76.40;99735.53;5013488;28;20054;-64
2022/12/26 02:17:07;;;;;;;15.55;13.65;;;;;;;13.26;77.33;99733.06;5013524;28;20475;-64
2022/12/26 02:19:43;;;;;;;14.45;12.85;;;;;;;13.33;76.50;99727.75;5013522;28;20432;-65
2022/12/26 02:22:50;;;;;;;12.98;9.00;;;;;;;13.27;77.41;99736.69;5013277;28;20050;-65
2022/12/26 02:25:37;;;;;;;10.25;9.18;;;;;;;13.38;76.81;99741.50;5013466;28;20050;-65
2022/12/26 02:28:27;;;;;;;13.80;9.57;;;;;;;13.25;77.14;99759.44;5013273;28;20057;-65
2022/12/26 02:31:02;;;;;;;13.30;10.43;;;;;;;13.12;78.68;99760.56;5013176;28;20388;-65
2022/12/26 02:33:42;;;;;;;9.63;8.18;;;;;;;13.08;78.36;99752.09;5012726;28;20080;-65
2022/12/26 02:36:27;;;;;;;15.57;10.05;;;;;;;13.13;79.60;99754.63;5013355;28;20418;-65
2022/12/26 02:39:08;;;;;;;13.20;9.57;;;;;;;13.16;79.03;99741.94;5012335;28;20502;-65
2022/12/26 02:41:47;;;;;;;11.90;9.02;;;;;;;13.08;78.97;99732.53;5013258;28;20061;-65
2022/12/26 02:47:15;;;;;;;17.15;14.93;;;;;;;13.06;79.22;99745.19;5013205;28;20060;-64
2022/12/26 03:13:15;;;;;;;22.48;17.75;;;;;;;12.94;78.19;99744.03;5015470;28;20064;-65
2022/12/26 03:18:37;;;;;;;14.82;11.27;;;;;;;13.01;77.72;99732.25;5014251;28;20065;-64
2022/12/26 03:21:07;;;;;;;10.45;8.57;;;;;;;12.95;77.46;99740.06;5012624;28;20117;-65
2022/12/26 03:23:38;;;;;;;11.27;8.02;;;;;;;12.96;78.53;99741.69;5012669;28;20057;-65
2022/12/26 03:30:47;;;;;;;6.13;4.53;;;;;;;12.86;77.22;99756.13;5012267;28;20053;-65
2022/12/26 03:31:43;;;;;;;6.38;4.32;;;;;;;12.94;77.44;99749.63;5012084;28;20062;-65
2022/12/26 03:34:19;;;;;;;;;;;;;;;12.95;78.62;99739.25;5012783;28;20057;-65
2022/12/26 03:37:01;;;;;;;5.53;4.13;;;;;;;12.90;77.54;99733.91;5012166;28;19922;-64
2022/12/26 04:20:20;;;;;;;6.40;4.55;;;;;;;13.12;78.20;99771.75;5016466;28;20100;-62
2022/12/26 04:45:39;;;;;;;2.78;1.55;;;;;;;13.09;74.33;99797.63;5021201;28;20515;-62
2022/12/26 04:50:51;;;;;;;1.80;1.40;;;;;;;12.95;74.27;99790.38;5020881;28;20065;-62
2022/12/26 04:53:19;;;;;;;2.78;1.70;;;;;;;12.93;74.27;99791.88;5014500;28;20050;-62
2022/12/26 04:55:47;;;;;;;2.83;1.35;;;;;;;12.83;74.08;99811.91;4995439;28;20054;-61
2022/12/26 04:58:19;;;;;;;1.73;1.02;;;;;;;12.74;72.99;99809.19;4995590;28;20050;-62
2022/12/26 05:00:48;;;;;;;1.80;1.20;;;;;;;12.74;73.50;99807.22;4994992;28;20062;-62
2022/12/26 05:11:37;;;;;;;3.33;1.10;;;;;;;12.54;72.05;99836.84;5010948;28;20430;-61
2022/12/26 05:14:04;;;;;;;2.08;0.93;;;;;;;12.45;73.06;99833.34;5014561;28;20054;-61
2022/12/26 05:30:26;;;;;;;1.77;1.25;;;;;;;12.29;72.16;99833.13;5001546;28;20098;-60
2022/12/26 05:35:40;;;;;;;1.83;1.30;;;;;;;12.16;72.43;99832.25;5019997;28;20077;-60
2022/12/26 05:38:10;;;;;;;2.20;1.42;;;;;;;12.15;73.08;99830.63;5014106;28;20060;-60
2022/12/26 05:40:37;;;;;;;;;;;;;;;12.12;72.59;99827.72;5014481;28;20084;-60
2022/12/26 05:43:04;;;;;;;2.42;1.50;;;;;;;12.09;72.98;99831.97;5014370;28;20286;-61
2022/12/26 05:45:31;;;;;;;2.28;1.50;;;;;;;12.07;72.35;99828.72;5013446;28;20057;-61
2022/12/26 05:48:01;;;;;;;2.75;1.70;;;;;;;12.17;73.02;99817.13;5013762;28;20494;-60
2022/12/26 05:50:29;;;;;;;2.90;1.45;;;;;;;12.13;73.44;99827.34;5013985;28;20061;-60
2022/12/26 05:52:56;;;;;;;2.28;1.52;;;;;;;12.22;72.58;99826.47;5014021;28;20495;-60
2022/12/26 05:55:24;;;;;;;1.90;1.50;;;;;;;12.12;72.92;99830.50;5014221;28;20057;-61
2022/12/26 05:57:51;;;;;;;2.85;1.70;;;;;;;12.21;73.26;99822.06;5013765;28;20056;-60
2022/12/26 06:00:21;;;;;;;2.60;1.50;;;;;;;12.25;72.34;99815.44;5013960;28;20494;-60
2022/12/26 06:02:48;;;;;;;2.33;1.80;;;;;;;12.30;72.18;99833.94;5013139;28;20054;-60
2022/12/26 06:05:17;;;;;;;3.25;2.30;;;;;;;12.33;72.22;99836.06;5013851;28;20057;-59
2022/12/26 06:07:44;;;;;;;3.47;2.33;;;;;;;12.39;71.88;99845.88;5013733;28;20058;-59
2022/12/26 06:10:12;;;;;;;3.42;2.22;;;;;;;12.36;71.98;99846.53;5013955;28;20050;-60
2022/12/26 06:12:39;;;;;;;3.95;2.35;;;;;;;12.34;72.09;99843.28;5013701;28;20061;-60
2022/12/26 06:15:08;;;;;;;4.35;2.92;;;;;;;12.39;71.95;99848.66;5013686;28;20058;-60
2022/12/26 06:17:39;;;;;;;4.05;2.40;;;;;;;12.42;71.49;99838.78;5013461;28;20061;-61
2022/12/26 06:20:07;;;;;;;3.00;2.38;;;;;;;12.38;72.31;99839.44;5012328;28;20050;-60
2022/12/26 06:22:36;;;;;;;3.45;2.55;;;;;;;12.43;71.48;99837.63;5013386;28;20061;-59
2022/12/26 06:25:03;;;;;;;2.90;2.10;;;;;;;12.43;71.50;99821.69;5012869;28;20115;-60
2022/12/26 06:27:31;;;;;;;2.53;1.92;;;;;;;12.35;71.74;99825.38;5013282;28;20061;-61
2022/12/26 06:29:58;;;;;;;3.22;2.00;;;;;;;12.32;71.92;99817.66;5012788;28;20046;-60
2022/12/26 06:32:25;;;;;;;3.20;2.63;;;;;;;12.35;71.88;99817.81;5008004;28;20434;-60
2022/12/26 06:34:53;;;;;;;2.45;1.90;;;;;;;12.31;71.41;99816.06;5012952;28;20061;-64
2022/12/26 06:37:20;;;;;;;2.88;2.55;;;;;;;12.29;71.50;99815.56;5012552;28;20057;-61
2022/12/26 06:39:48;;;;;;;3.03;2.40;;;;;;;12.35;71.55;99808.63;5013062;28;20487;-60
2022/12/26 06:42:16;;;;;;;2.90;2.15;;;;;;;12.33;71.75;99810.94;5013316;28;20478;-61
2022/12/26 06:44:43;;;;;;;2.63;2.10;;;;;;;12.30;72.45;99820.00;5012923;28;20054;-61
2022/12/26 06:47:10;;;;;;;3.58;2.17;;;;;;;12.34;71.29;99821.75;5012722;28;20049;-61
2022/12/26 06:49:37;;;;;;;3.63;2.60;;;;;;;12.22;71.40;99832.88;5013123;28;20061;-61
2022/12/26 06:52:06;;;;;;;3.30;2.08;;;;;;;12.14;71.90;99829.00;5012947;28;20053;-61
2022/12/26 06:54:33;;;;;;;3.28;2.25;;;;;;;12.20;71.98;99826.81;5012264;28;20054;-60
2022/12/26 06:57:02;;;;;;;2.47;2.08;;;;;;;12.22;71.65;99830.09;5012732;28;20054;-61
2022/12/26 06:59:29;;;;;;;2.85;2.17;;;;;;;12.20;72.48;99826.81;5012609;28;20057;-61
2022/12/26 07:01:57;;;;;;;3.83;2.03;;;;;;;12.18;72.81;99824.38;5012376;28;20050;-61
2022/12/26 07:04:24;;;;;;;3.13;1.95;;;;;;;12.28;72.71;99825.09;5013105;28;20064;-62
2022/12/26 07:06:52;;;;;;;3.88;2.00;;;;;;;12.29;72.27;99833.13;5012750;28;20050;-62
2022/12/26 07:09:19;;;;;;;3.70;2.33;;;;;;;12.24;72.77;99835.31;5012362;28;20045;-62
2022/12/26 07:11:48;;;;;;;3.25;2.28;;;;;;;12.19;72.11;99839.94;5012709;28;20050;-62
2022/12/26 07:14:17;;;;;;;3.03;2.30;;;;;;;12.25;72.06;99840.56;5012742;28;20482;-61
2022/12/26 07:16:45;;;;;;;3.43;2.20;;;;;;;12.25;72.58;99836.97;5012254;28;20057;-62
2022/12/26 07:19:14;;;;;;;3.53;2.60;;;;;;;12.32;72.00;99837.22;5012574;28;21028;-62
2022/12/26 07:21:42;;;;;;;3.78;2.60;;;;;;;12.31;72.40;99838.38;5012678;28;20053;-62
2022/12/26 07:24:15;;;;;;;3.05;2.20;;;;;;;12.23;72.69;99854.06;5012647;28;20054;-62
2022/12/26 07:26:43;;;;;;;3.30;2.00;;;;;;;12.37;71.27;99870.53;5011736;28;20129;-63
2022/12/26 07:29:11;;;;;;;2.80;2.20;;;;;;;12.43;70.98;99874.75;5012078;28;20057;-63
2022/12/26 07:31:40;;;;;;;3.33;1.90;;;;;;;12.42;71.56;99878.69;5012410;28;20057;-63
2022/12/26 07:34:08;;;;;;;3.72;2.20;;;;;;;12.48;71.27;99876.53;5010251;28;20514;-63
2022/12/26 07:36:35;;;;;;;2.00;1.80;;;;;;;12.44;70.86;99881.97;5001160;28;20050;-63
2022/12/26 07:39:02;;;;;;;3.75;2.38;;;;;;;12.45;70.90;99894.78;5008343;28;20061;-64
2022/12/26 07:44:15;;;;;;;3.85;2.50;;;;;;;12.38;71.24;99902.88;5018105;28;20060;-64
2022/12/26 07:46:45;;;;;;;3.10;2.50;;;;;;;12.37;71.09;99898.47;5011573;28;20050;-64
2022/12/26 07:49:13;;;;;;;3.20;2.63;;;;;;;12.33;71.69;99880.75;5005785;28;20061;-65
2022/12/26 07:51:40;;;;;;;4.68;3.45;;;;;;;12.42;71.12;99869.50;5009815;28;20418;-64
2022/12/26 07:54:08;;;;;;;4.22;3.50;;;;;;;12.43;71.90;99874.75;5007661;28;20052;-63
2022/12/26 07:56:36;;;;;;;3.80;3.30;;;;;;;12.49;71.14;99883.72;5008047;28;20058;-64
2022/12/26 07:59:03;;;;;;;4.65;3.30;;;;;;;12.47;71.06;99892.44;5004458;28;20061;-64
2022/12/26 08:01:30;;;;;;;7.25;4.45;;;;;;;12.36;72.22;99897.63;5011328;28;20406;-64
2022/12/26 08:03:59;;;;;;;4.13;3.30;;;;;;;12.53;71.51;99904.25;5005153;28;20073;-64
2022/12/26 08:06:26;;;;;;;6.47;3.60;;;;;;;12.43;71.36;99905.50;5009592;28;20059;-63
2022/12/26 08:08:53;;;;;;;3.85;3.45;;;;;;;12.39;71.29;99902.53;5006523;28;20050;-63
2022/12/26 08:11:23;;;;;;;4.63;3.53;;;;;;;12.47;71.45;99920.38;5019325;28;20042;-63
2022/12/26 08:13:51;;;;;;;4.63;3.42;;;;;;;12.52;71.51;99914.59;5014519;28;20053;-64
2022/12/26 08:16:19;;;;;;;3.38;3.08;;;;;;;12.50;71.13;99930.88;5015683;28;20426;-64
2022/12/26 08:18:46;;;;;;;4.78;3.28;;;;;;;12.45;71.14;99916.28;5013156;28;20050;-63
2022/12/26 08:21:15;;;;;;;4.53;3.33;;;;;;;12.50;70.76;99914.13;5012849;28;20069;-64
2022/12/26 08:23:43;;;;;;;4.88;3.40;;;;;;;12.50;70.79;99918.91;5013762;28;20414;-64
2022/12/26 08:26:15;;;;;;;3.13;2.80;;;;;;;12.36;71.03;99917.19;5012477;28;20419;-64
2022/12/26 08:28:42;;;;;;;4.30;3.42;;;;;;;12.36;72.15;99919.16;5013403;28;20422;-64
2022/12/26 08:31:12;;;;;;;4.10;3.33;;;;;;;12.21;72.68;99916.97;5010739;28;20050;-63
2022/12/26 08:33:39;;;;;;;4.85;3.20;;;;;;;12.38;71.69;99925.22;5008588;28;20062;-64
2022/12/26 08:36:09;;;;;;;4.35;2.70;;;;;;;12.28;72.06;99929.22;5009246;28;20054;-64
2022/12/26 08:38:38;;;;;;;;;;;;;;;12.37;70.97;99927.22;5014479;28;20049;-63
2022/12/26 08:41:06;;;;;;;3.33;2.35;;;;;;;12.30;71.77;99931.69;5003829;28;19928;-64
2022/12/26 08:43:33;;;;;;;7.10;2.95;;;;;;;12.31;71.72;99930.53;5000519;28;20054;-64
2022/12/26 08:48:59;;;;;;;4.00;2.63;;;;;;;12.40;70.62;99936.88;5004211;28;20065;-63
2022/12/26 08:51:26;;;;;;;3.50;2.28;;;;;;;12.42;70.65;99942.13;5003238;28;20486;-63
2022/12/26 08:53:56;;;;;;;2.20;1.75;;;;;;;12.32;70.10;99937.75;5008652;28;20475;-63
2022/12/26 08:56:25;;;;;;;2.30;2.03;;;;;;;12.39;69.94;99933.28;5003622;28;20057;-64
2022/12/26 08:58:52;;;;;;;3.75;1.90;;;;;;;12.28;70.52;99947.97;5005547;28;20482;-63
2022/12/26 09:01:21;;;;;;;2.78;1.65;;;;;;;12.24;69.52;99941.41;5010449;28;20487;-64
2022/12/26 09:03:52;;;;;;;2.80;1.52;;;;;;;12.36;69.69;99941.50;5006023;28;20056;-64
2022/12/26 09:06:20;;;;;;;2.53;1.15;;;;;;;12.36;68.54;99939.53;5005568;28;20050;-64
2022/12/26 09:08:47;;;;;;;2.72;1.30;;;;;;;12.44;68.65;99937.03;5004944;28;20049;-64
2022/12/26 09:11:18;;;;;;;2.53;1.15;;;;;;;12.37;67.70;99945.94;5007925;28;20049;-64
2022/12/26 09:13:46;;;;;;;2.97;1.30;;;;;;;12.44;67.57;99946.22;5009842;28;20050;-64
2022/12/26 09:16:16;;;;;;;1.70;1.02;;;;;;;12.55;68.15;99946.63;5008649;28;20060;-64
2022/12/26 09:18:44;;;;;;;1.67;1.20;;;;;;;12.64;67.88;99954.94;5005638;28;20053;-64
2022/12/26 09:21:13;;;;;;;4.07;1.35;;;;;;;12.58;67.82;99957.94;5004297;28;20057;-64
2022/12/26 09:23:41;;;;;;;2.80;1.20;;;;;;;12.64;67.44;99957.72;5005027;28;20050;-64
2022/12/26 09:26:10;;;;;;;3.22;1.40;;;;;;;12.81;67.67;99949.22;5013929;28;20051;-64
2022/12/26 09:28:39;;;;;;;;;;;;;;;12.83;66.86;99960.88;5010194;28;20060;-64
2022/12/26 09:31:08;;;;;;;3.30;1.00;;;;;;;12.55;67.59;99964.19;5006448;28;20398;-64
2022/12/26 09:33:36;;;;;;;2.60;1.00;;;;;;;12.72;67.52;99968.00;5006040;28;20046;-64
2022/12/26 09:36:05;;;;;;;3.50;1.08;;;;;;;12.77;66.81;99965.03;5007544;28;20076;-64
2022/12/26 09:38:33;;;;;;;3.17;1.10;;;;;;;12.82;66.24;99964.81;5008450;28;20050;-64
2022/12/26 09:41:14;;;;;;;3.78;1.35;;;;;;;12.78;65.98;99980.63;5007896;28;20062;-64
2022/12/26 09:43:58;;;;;;;2.60;0.90;;;;;;;12.73;65.17;99973.25;5007860;28;20050;-64
2022/12/26 09:46:32;;;;;;;1.98;1.05;;;;;;;12.85;65.82;99974.47;5009272;28;20069;-64
2022/12/26 09:49:06;;;;;;;2.92;0.90;;;;;;;12.79;64.66;99983.09;5006503;28;20502;-63
2022/12/26 09:51:35;;;;;;;3.00;1.35;;;;;;;12.64;65.37;99985.66;5010982;28;20057;-64
2022/12/26 09:54:05;;;;;;;2.23;1.00;;;;;;;12.58;65.07;99987.84;5010817;28;20515;-64
2022/12/26 09:56:36;;;;;;;3.45;1.50;;;;;;;12.65;65.06;100004.06;5010599;28;20060;-65
2022/12/26 09:59:12;;;;;;;4.40;1.38;;;;;;;12.64;65.21;100000.47;5011203;28;20415;-64
2022/12/26 10:01:40;;;;;;;3.03;1.13;;;;;;;12.73;65.54;100004.00;5009326;28;20057;-64
2022/12/26 10:04:19;;;;;;;2.88;1.10;;;;;;;12.76;64.65;99991.31;5009500;28;20054;-65
2022/12/26 10:06:51;;;;;;;2.35;1.00;;;;;;;13.04;63.86;99999.13;5010568;28;20054;-65
2022/12/26 10:09:36;;;;;;;2.70;1.10;;;;;;;13.27;62.36;100008.81;5011565;28;20069;-64
2022/12/26 10:12:17;;;;;;;2.92;1.25;;;;;;;13.32;61.73;100003.03;5009673;28;20490;-64
2022/12/26 10:14:53;;;;;;;1.85;0.85;;;;;;;13.36;60.96;100009.56;5005299;28;20046;-64
2022/12/26 10:17:29;;;;;;;3.17;1.23;;;;;;;13.73;60.17;100004.06;5007273;28;20407;-64
2022/12/26 10:20:16;;;;;;;2.20;0.98;;;;;;;13.92;60.29;99995.13;5009284;28;20050;-64
2022/12/26 10:23:17;;;;;;;2.90;0.88;;;;;;;14.55;58.11;99994.75;5008256;28;20069;-65
2022/12/26 10:25:48;;;;;;;1.60;1.10;;;;;;;15.07;56.94;99986.66;5003411;28;20050;-64
2022/12/26 10:28:19;;;;;;;10.70;1.20;;;;;;;16.48;52.02;99991.94;5005769;28;20064;-64
2022/12/26 10:30:50;;;;;;;2.35;1.13;;;;;;;18.31;47.46;99978.59;5010926;28;20049;-64
2022/12/26 10:33:25;;;;;;;2.83;1.00;;;;;;;18.16;48.09;99988.84;5008666;28;21653;-65
2022/12/26 10:35:53;;;;;;;2.95;1.27;;;;;;;17.95;48.31;99992.94;5008494;28;20486;-64
2022/12/26 10:38:29;;;;;;;3.65;1.00;;;;;;;16.41;51.21;99998.19;5007532;28;20046;-65
2022/12/26 10:41:04;;;;;;;2.65;1.15;;;;;;;15.48;54.20;99990.22;5002584;28;20061;-64
2022/12/26 10:43:33;;;;;;;3.30;1.40;;;;;;;15.13;54.07;99990.84;5003543;28;20060;-64
2022/12/26 10:46:46;;;;;;;3.35;1.10;;;;;;;15.80;53.24;99997.50;5009816;28;20056;-64
2022/12/26 10:49:18;;;;;;;3.80;1.77;;;;;;;15.47;53.65;99995.00;5007128;28;20050;-65
2022/12/26 10:51:45;;;;;;;2.40;1.30;;;;;;;15.78;52.48;99988.63;5013326;28;20045;-64
2022/12/26 10:54:17;;;;;;;2.70;0.90;;;;;;;15.69;52.65;99985.16;5000520;28;20060;-65
2022/12/26 10:56:46;;;;;;;3.65;1.10;;;;;;;15.27;53.98;99977.22;5004812;28;20111;-64
2022/12/26 10:59:17;;;;;;;5.57;3.47;;;;;;;14.86;54.66;99993.25;5006288;28;20058;-64
2022/12/26 11:01:49;;;;;;;3.40;1.50;;;;;;;14.65;55.58;99987.03;5010368;28;20049;-65
2022/12/26 11:04:21;;;;;;;3.85;0.95;;;;;;;14.32;57.06;99986.00;5010435;28;20061;-65
2022/12/26 11:06:51;;;;;;;3.35;1.15;;;;;;;13.87;57.94;99980.53;5006085;28;20061;-64
2022/12/26 11:09:45;;;;;;;1.80;1.02;;;;;;;13.68;57.89;99972.69;4998908;28;20445;-64
2022/12/26 11:12:26;;;;;;;2.58;1.58;;;;;;;14.30;57.54;99970.69;4951308;28;20050;-64
2022/12/26 11:14:58;;;;;;;3.55;1.10;;;;;;;14.50;56.33;99991.34;5002793;28;20049;-65
2022/12/26 11:17:30;;;;;;;3.28;1.40;;;;;;;13.64;58.41;99986.53;5004179;28;20049;-64
2022/12/26 11:20:23;;;;;;;2.88;1.10;;;;;;;13.69;58.27;99977.09;5004704;28;20406;-64
2022/12/26 11:22:51;;;;;;;2.35;1.10;;;;;;;13.69;58.71;99985.50;5004180;28;20380;-64
2022/12/26 11:25:22;;;;;;;5.40;1.48;;;;;;;13.47;60.35;99981.97;5008588;28;20050;-64
2022/12/26 11:27:51;;;;;;;3.55;1.20;;;;;;;13.59;60.31;99978.38;5006107;28;20046;-64
2022/12/26 11:30:22;;;;;;;3.38;1.77;;;;;;;13.32;60.08;99972.25;5003594;28;20050;-64
2022/12/26 11:33:04;;;;;;;2.10;1.30;;;;;;;13.30;59.29;99993.34;5003904;28;20050;-65
2022/12/26 11:36:01;;;;;;;3.92;1.15;;;;;;;13.37;60.48;99986.00;5010443;28;20054;-63
2022/12/26 11:38:38;;;;;;;4.10;1.42;;;;;;;13.07;60.11;100001.28;5001277;28;20046;-64
2022/12/26 11:43:56;;;;;;;2.50;1.30;;;;;;;12.93;61.42;99999.56;5001654;28;20068;-64
2022/12/26 11:46:32;;;;;;;2.33;1.33;;;;;;;12.97;61.16;100000.50;5008944;28;20478;-63
2022/12/26 11:49:02;;;;;;;5.05;1.20;;;;;;;13.00;60.03;99987.84;5004799;28;20046;-63
2022/12/26 11:51:39;;;;;;;3.13;1.30;;;;;;;13.03;60.18;99994.72;5007384;28;20061;-64
2022/12/26 11:54:18;;;;;;;2.42;1.38;;;;;;;12.95;61.92;99991.66;5000374;28;20054;-63
2022/12/26 11:56:45;;;;;;;;;;;;;;;12.96;60.73;100009.25;5011348;28;20054;-63
2022/12/26 11:59:19;;;;;;;2.95;1.10;;;;;;;13.01;60.13;99989.47;5011196;28;19921;-64
2022/12/26 12:01:47;;;;;;;2.78;1.17;;;;;;;13.10;60.76;99995.81;5012329;28;20057;-64
2022/12/26 12:04:17;;;;;;;2.80;1.08;;;;;;;13.15;60.01;99997.56;5011281;28;20390;-63
2022/12/26 12:06:52;;;;;;;;;;;;;;;13.16;60.19;99994.41;5009435;28;20430;-64
2022/12/26 12:09:25;;;;;;;3.25;0.98;;;;;;;13.13;60.11;99991.50;5010257;28;19928;-64
2022/12/26 12:12:01;;;;;;;4.47;1.33;;;;;;;13.06;59.93;99986.47;5006148;28;20497;-64
2022/12/26 12:14:45;;;;;;;4.95;1.45;;;;;;;13.08;60.64;100000.09;5009666;28;20058;-64
2022/12/26 12:17:22;;;;;;;2.53;1.23;;;;;;;13.14;59.60;99987.53;4993534;28;20410;-63
2022/12/26 12:20:06;;;;;;;2.28;1.20;;;;;;;13.05;60.11;99979.22;5002453;28;20061;-64
2022/12/26 12:22:57;;;;;;;5.00;1.48;;;;;;;13.11;59.68;99991.84;5010348;28;20052;-63
2022/12/26 12:25:47;;;;;;;1.73;1.10;;;;;;;13.04;60.18;99982.38;4993255;28;20054;-63
2022/12/26 12:28:44;;;;;;;2.92;1.27;;;;;;;13.14;60.92;99984.75;5004453;28;20065;-63
2022/12/26 12:31:23;;;;;;;3.42;1.20;;;;;;;13.28;61.42;99971.28;5011341;28;20057;-64
2022/12/26 12:33:57;;;;;;;2.58;1.00;;;;;;;13.39;61.02;99960.50;5014134;28;20057;-64
2022/12/26 12:36:36;;;;;;;3.22;1.50;;;;;;;13.41;61.05;99958.16;5011478;28;20053;-64
2022/12/26 12:39:11;;;;;;;4.53;1.48;;;;;;;12.97;62.63;99969.75;5014446;28;20061;-65
2022/12/26 12:41:59;;;;;;;4.38;1.15;;;;;;;12.67;62.27;99974.63;5014446;28;20053;-65
2022/12/26 12:44:36;;;;;;;3.05;1.33;;;;;;;12.74;63.18;99974.06;5013680;28;20065;-64
2022/12/26 12:47:21;;;;;;;3.33;1.10;;;;;;;12.57;63.44;99975.03;5013074;28;20061;-64
2022/12/26 12:49:59;;;;;;;3.20;1.30;;;;;;;12.66;63.81;99970.22;5012240;28;20053;-64
2022/12/26 12:52:40;;;;;;;3.47;1.45;;;;;;;12.76;62.51;99966.97;5012892;28;20053;-65
2022/12/26 12:55:36;;;;;;;3.08;1.20;;;;;;;12.71;62.66;99974.78;5013301;28;20054;-64
2022/12/26 12:58:13;;;;;;;2.25;1.13;;;;;;;12.76;61.93;99966.16;4994172;28;20498;-64
2022/12/26 13:00:44;;;;;;;2.67;1.10;;;;;;;12.69;63.10;99982.69;5003772;28;20046;-65
2022/12/26 13:03:24;;;;;;;4.90;1.30;;;;;;;12.59;63.59;99976.31;5014754;28;20517;-64
2022/12/26 13:06:05;;;;;;;2.60;1.27;;;;;;;12.64;63.14;99985.66;5013769;28;20490;-64
2022/12/26 13:08:38;;;;;;;3.22;1.40;;;;;;;12.50;64.39;99975.59;5013315;28;20053;-64
2022/12/26 13:11:10;;;;;;;3.67;1.20;;;;;;;12.57;64.16;99975.84;5014687;28;20065;-64
2022/12/26 13:13:43;;;;;;;2.45;1.10;;;;;;;12.56;64.13;99979.81;5014776;28;20061;-63
2022/12/26 13:16:13;;;;;;;2.65;1.02;;;;;;;12.53;63.73;99983.28;5009151;28;20065;-64
2022/12/26 13:18:51;;;;;;;1.70;1.00;;;;;;;12.38;64.63;99984.69;5013344;28;20056;-64
2022/12/26 13:21:20;;;;;;;2.67;0.90;;;;;;;12.47;64.35;99975.44;5012017;28;20411;-63
2022/12/26 13:26:41;;;;;;;4.57;1.45;;;;;;;12.29;64.25;99997.09;5016631;28;20057;-64
2022/12/26 13:29:13;;;;;;;3.22;1.50;;;;;;;12.42;64.13;100000.78;4994341;28;20054;-63
2022/12/26 13:31:41;;;;;;;3.10;1.30;;;;;;;12.50;64.36;100008.28;5002528;28;20054;-64
2022/12/26 13:34:11;;;;;;;2.95;1.20;;;;;;;12.58;65.25;100038.16;5014002;28;20057;-64
2022/12/26 13:36:42;;;;;;;3.85;0.90;;;;;;;12.53;62.87;100030.75;5010760;28;20076;-64
2022/12/26 13:39:32;;;;;;;2.30;0.90;;;;;;;12.44;63.05;100037.56;5007117;28;20056;-63
2022/12/26 13:44:51;;;;;;;4.55;1.13;;;;;;;12.16;63.05;100044.44;5007652;28;20056;-65
2022/12/26 13:47:34;;;;;;;3.05;1.33;;;;;;;12.16;62.78;100055.63;5007419;28;20065;-62
2022/12/26 13:50:37;;;;;;;5.05;1.63;;;;;;;12.17;63.30;100054.44;5011783;28;20053;-60
2022/12/26 13:53:05;;;;;;;4.90;1.38;;;;;;;12.13;62.98;100066.63;4984582;28;20125;-61
2022/12/26 13:55:43;;;;;;;4.57;1.13;;;;;;;12.01;63.34;100070.16;5010835;28;20060;-64
2022/12/26 13:58:26;;;;;;;5.38;1.73;;;;;;;12.05;63.74;100076.66;5012399;28;20049;-65
2022/12/26 14:01:00;;;;;;;3.33;1.38;;;;;;;12.00;63.68;100082.44;5005783;28;20057;-64
2022/12/26 14:03:44;;;;;;;3.97;1.98;;;;;;;12.06;63.36;100074.72;5009032;28;20055;-65
2022/12/26 14:06:29;;;;;;;3.67;1.80;;;;;;;11.97;64.56;100088.72;5011070;28;20060;-64
2022/12/26 14:09:20;;;;;;;4.57;2.47;;;;;;;11.96;63.91;100099.03;5011999;28;20406;-64
2022/12/26 14:12:04;;;;;;;5.72;3.08;;;;;;;11.97;64.04;100108.25;5010619;28;20045;-63
2022/12/26 14:14:47;;;;;;;6.70;3.58;;;;;;;11.93;64.11;100088.53;5005791;28;20053;-64
2022/12/26 14:17:22;;;;;;;4.05;3.30;;;;;;;11.92;63.83;100088.88;5007710;28;20435;-64
2022/12/26 14:19:59;;;;;;;6.00;4.10;;;;;;;11.91;63.99;100085.28;5000169;28;20053;-64